Hatsu Excel — VSXV3 — position and weather

sailwx.info

Track history (hours):
 
Tides and Currents Weather Stations Pressure Air Temp Water Temp Dewpoint Dewpoint Depression Visibility Wind Speed Wind Dir Waves Ship Positions

Hatsu Excel

Last reported at 2014-Oct-21 09:33 UTC. Time now 2014-Oct-21 10:34 UTC.
Position N 48°49' W 125°52'.

Type: Ship (hazmat cat D). MMSI: 235479000.

Date/timePositionNaut miles runAvg speedWind from/ knotsBaromVisibWave heightAir tempDewpointWater temp
2014-Oct-21 09:33N 48°49' W 125°52'1818.1
2014-Oct-21 08:34N 48°39' W 125°29'1717.2
2014-Oct-21 07:33N 48°31' W 125°06'1716.7
2014-Oct-21 06:34N 48°30' W 124°41'1717.3
2014-Oct-21 05:34N 48°23' W 124°17'1919.4
2014-Oct-21 04:33N 48°17' W 123°49'1515.2
2014-Oct-21 03:33N 48°20' W 123°27'1211.8
2014-Oct-21 02:34N 48°26' W 123°12'1817.9
2014-Oct-21 01:34N 48°44' W 123°09'1413.9
2014-Oct-21 00:34N 48°57' W 123°15'1717.2
2014-Oct-20 23:34N 49°14' W 123°21'1111.0
2014-Oct-20 22:33N 49°18' W 123°06'1 0.9
2014-Oct-20 21:31N 49°17' W 123°05'0 0.0
2014-Oct-20 20:31N 49°17' W 123°05'0 0.0
2014-Oct-20 19:31N 49°17' W 123°05'0 0.0
2014-Oct-20 18:31N 49°17' W 123°05'0 0.0
2014-Oct-20 17:34N 49°17' W 123°05'0 0.0
2014-Oct-20 16:31N 49°17' W 123°05'0 0.0
2014-Oct-20 15:31N 49°17' W 123°05'0 0.0
2014-Oct-20 14:34N 49°17' W 123°05'0 0.0
2014-Oct-20 13:31N 49°17' W 123°05'0 0.0
2014-Oct-20 12:31N 49°17' W 123°05'0 0.0
2014-Oct-20 11:34N 49°17' W 123°05'0 0.0
2014-Oct-20 10:31N 49°17' W 123°05'0 0.0
2014-Oct-20 09:33N 49°17' W 123°05'0 0.0
2014-Oct-20 08:33N 49°17' W 123°05'0 0.0
2014-Oct-20 07:33N 49°17' W 123°05'0 0.0
2014-Oct-20 06:34N 49°17' W 123°05'0 0.0
2014-Oct-20 05:33N 49°17' W 123°05'0 0.0
2014-Oct-20 04:34N 49°17' W 123°05'0 0.0
2014-Oct-20 03:34N 49°17' W 123°05'0 0.0
2014-Oct-20 02:34N 49°17' W 123°05'0 0.0
2014-Oct-20 01:33N 49°17' W 123°05'0 0.0
2014-Oct-20 00:33N 49°17' W 123°05'0 0.0
2014-Oct-19 23:34N 49°17' W 123°05'0 0.0
2014-Oct-19 22:34N 49°17' W 123°05'0 0.0
2014-Oct-19 21:34N 49°17' W 123°05'0 0.0
2014-Oct-19 20:33N 49°17' W 123°05'0 0.0
2014-Oct-19 19:34N 49°17' W 123°05'0 0.0
2014-Oct-19 18:34N 49°17' W 123°05'0 0.0
2014-Oct-19 17:34N 49°17' W 123°05'0 0.0
2014-Oct-19 16:33N 49°17' W 123°05'0 0.0
2014-Oct-19 15:34N 49°17' W 123°05'0 0.0
2014-Oct-19 14:33N 49°17' W 123°05'0 0.0
2014-Oct-19 13:33N 49°17' W 123°05'0 0.0
2014-Oct-19 12:34N 49°17' W 123°05'0 0.0
2014-Oct-19 11:34N 49°17' W 123°05'0 0.0
2014-Oct-19 10:34N 49°17' W 123°05'0 0.4
2014-Oct-19 09:34N 49°18' W 123°05'9 8.6
2014-Oct-19 08:33N 49°17' W 123°18'1716.8
2014-Oct-19 07:34N 49°00' W 123°14'1616.4
2014-Oct-19 06:33N 48°45' W 123°04'1514.7
2014-Oct-19 05:33N 48°31' W 123°11'1211.7
2014-Oct-19 04:33N 48°22' W 123°22'10 9.9
2014-Oct-19 03:33N 48°13' W 123°26'1111.3
2014-Oct-19 02:33N 48°12' W 123°09'2020.0
2014-Oct-19 01:33N 48°07' W 122°40'2020.5
2014-Oct-19 00:34N 47°49' W 122°27'1717.1
2014-Oct-18 23:33N 47°32' W 122°25'1211.6
2014-Oct-18 22:33N 47°20' W 122°26'5 4.9
2014-Oct-18 21:33N 47°15' W 122°23'0 0.0
2014-Oct-18 16:23N 47°15' W 122°23'0 0.0
2014-Oct-18 06:23N 47°15' W 122°23'0 0.0
2014-Oct-18 03:05N 47°15' W 122°23'0 0.0
2014-Oct-18 00:23N 47°15' W 122°23'0 0.0
2014-Oct-17 23:23N 47°15' W 122°23'0 0.0
2014-Oct-17 22:29N 47°15' W 122°23'0 0.0
2014-Oct-17 19:17N 47°15' W 122°23'0 0.0
2014-Oct-17 17:33N 47°15' W 122°23'0 0.0
2014-Oct-17 16:29N 47°15' W 122°23'0 0.0
2014-Oct-17 15:31N 47°15' W 122°23'1 1.2
2014-Oct-17 14:33N 47°16' W 122°24'3 3.3
2014-Oct-17 13:33N 47°17' W 122°28'0 0.4
2014-Oct-17 12:33N 47°18' W 122°28'3 3.4
2014-Oct-17 11:33N 47°21' W 122°26'7 6.7
2014-Oct-17 10:34N 47°27' W 122°25'1312.9
2014-Oct-17 09:33N 47°40' W 122°28'1514.7
2014-Oct-17 08:33N 47°55' W 122°30'1918.4
2014-Oct-17 07:33N 48°10' W 122°46'1717.1
2014-Oct-17 06:33N 48°11' W 123°11'1111.2
2014-Oct-17 05:33N 48°12' W 123°28'1413.8
2014-Oct-17 04:33N 48°13' W 123°49'1414.5
2014-Oct-17 03:33N 48°18' W 124°09'1716.6
2014-Oct-17 02:33N 48°25' W 124°32'1817.7
2014-Oct-17 01:33N 48°28' W 124°58'1716.8
2014-Oct-17 00:33N 48°33' W 125°23'1817.7
2014-Oct-16 23:34N 48°41' W 125°46'1717.1
2014-Oct-16 22:33N 48°49' W 126°09'1717.4
2014-Oct-16 21:33N 48°58' W 126°32'1717.3
2014-Oct-16 20:33N 49°05' W 126°56'  
Track history (hours):
 
Tides and Currents Weather Stations Pressure Air Temp Water Temp Dewpoint Dewpoint Depression Visibility Wind Speed Wind Dir Waves Ship Positions

Hatsu Excel

Last reported at 2014-Oct-21 09:33 UTC. Time now 2014-Oct-21 10:34 UTC.
Position N 48°49' W 125°52'.

Type: Ship (hazmat cat D). MMSI: 235479000.

Date/timePositionNaut miles runAvg speedWind from/ knotsBaromVisibWave heightAir tempDewpointWater temp
2014-Oct-21 09:33N 48°49' W 125°52'1818.1
2014-Oct-21 08:34N 48°39' W 125°29'1717.2
2014-Oct-21 07:33N 48°31' W 125°06'1716.7
2014-Oct-21 06:34N 48°30' W 124°41'1717.3
2014-Oct-21 05:34N 48°23' W 124°17'1919.4
2014-Oct-21 04:33N 48°17' W 123°49'1515.2
2014-Oct-21 03:33N 48°20' W 123°27'1211.8
2014-Oct-21 02:34N 48°26' W 123°12'1817.9
2014-Oct-21 01:34N 48°44' W 123°09'1413.9
2014-Oct-21 00:34N 48°57' W 123°15'1717.2
2014-Oct-20 23:34N 49°14' W 123°21'1111.0
2014-Oct-20 22:33N 49°18' W 123°06'1 0.9
2014-Oct-20 21:31N 49°17' W 123°05'0 0.0
2014-Oct-20 20:31N 49°17' W 123°05'0 0.0
2014-Oct-20 19:31N 49°17' W 123°05'0 0.0
2014-Oct-20 18:31N 49°17' W 123°05'0 0.0
2014-Oct-20 17:34N 49°17' W 123°05'0 0.0
2014-Oct-20 16:31N 49°17' W 123°05'0 0.0
2014-Oct-20 15:31N 49°17' W 123°05'0 0.0
2014-Oct-20 14:34N 49°17' W 123°05'0 0.0
2014-Oct-20 13:31N 49°17' W 123°05'0 0.0
2014-Oct-20 12:31N 49°17' W 123°05'0 0.0
2014-Oct-20 11:34N 49°17' W 123°05'0 0.0
2014-Oct-20 10:31N 49°17' W 123°05'0 0.0
2014-Oct-20 09:33N 49°17' W 123°05'0 0.0
2014-Oct-20 08:33N 49°17' W 123°05'0 0.0
2014-Oct-20 07:33N 49°17' W 123°05'0 0.0
2014-Oct-20 06:34N 49°17' W 123°05'0 0.0
2014-Oct-20 05:33N 49°17' W 123°05'0 0.0
2014-Oct-20 04:34N 49°17' W 123°05'0 0.0
2014-Oct-20 03:34N 49°17' W 123°05'0 0.0
2014-Oct-20 02:34N 49°17' W 123°05'0 0.0
2014-Oct-20 01:33N 49°17' W 123°05'0 0.0
2014-Oct-20 00:33N 49°17' W 123°05'0 0.0
2014-Oct-19 23:34N 49°17' W 123°05'0 0.0
2014-Oct-19 22:34N 49°17' W 123°05'0 0.0
2014-Oct-19 21:34N 49°17' W 123°05'0 0.0
2014-Oct-19 20:33N 49°17' W 123°05'0 0.0
2014-Oct-19 19:34N 49°17' W 123°05'0 0.0
2014-Oct-19 18:34N 49°17' W 123°05'0 0.0
2014-Oct-19 17:34N 49°17' W 123°05'0 0.0
2014-Oct-19 16:33N 49°17' W 123°05'0 0.0
2014-Oct-19 15:34N 49°17' W 123°05'0 0.0
2014-Oct-19 14:33N 49°17' W 123°05'0 0.0
2014-Oct-19 13:33N 49°17' W 123°05'0 0.0
2014-Oct-19 12:34N 49°17' W 123°05'0 0.0
2014-Oct-19 11:34N 49°17' W 123°05'0 0.0
2014-Oct-19 10:34N 49°17' W 123°05'0 0.4
2014-Oct-19 09:34N 49°18' W 123°05'9 8.6
2014-Oct-19 08:33N 49°17' W 123°18'1716.8
2014-Oct-19 07:34N 49°00' W 123°14'1616.4
2014-Oct-19 06:33N 48°45' W 123°04'1514.7
2014-Oct-19 05:33N 48°31' W 123°11'1211.7
2014-Oct-19 04:33N 48°22' W 123°22'10 9.9
2014-Oct-19 03:33N 48°13' W 123°26'1111.3
2014-Oct-19 02:33N 48°12' W 123°09'2020.0
2014-Oct-19 01:33N 48°07' W 122°40'2020.5
2014-Oct-19 00:34N 47°49' W 122°27'1717.1
2014-Oct-18 23:33N 47°32' W 122°25'1211.6
2014-Oct-18 22:33N 47°20' W 122°26'5 4.9
2014-Oct-18 21:33N 47°15' W 122°23'0 0.0
2014-Oct-18 16:23N 47°15' W 122°23'0 0.0
2014-Oct-18 06:23N 47°15' W 122°23'0 0.0
2014-Oct-18 03:05N 47°15' W 122°23'0 0.0
2014-Oct-18 00:23N 47°15' W 122°23'0 0.0
2014-Oct-17 23:23N 47°15' W 122°23'0 0.0
2014-Oct-17 22:29N 47°15' W 122°23'0 0.0
2014-Oct-17 19:17N 47°15' W 122°23'0 0.0
2014-Oct-17 17:33N 47°15' W 122°23'0 0.0
2014-Oct-17 16:29N 47°15' W 122°23'0 0.0
2014-Oct-17 15:31N 47°15' W 122°23'1 1.2
2014-Oct-17 14:33N 47°16' W 122°24'3 3.3
2014-Oct-17 13:33N 47°17' W 122°28'0 0.4
2014-Oct-17 12:33N 47°18' W 122°28'3 3.4
2014-Oct-17 11:33N 47°21' W 122°26'7 6.7
2014-Oct-17 10:34N 47°27' W 122°25'1312.9
2014-Oct-17 09:33N 47°40' W 122°28'1514.7
2014-Oct-17 08:33N 47°55' W 122°30'1918.4
2014-Oct-17 07:33N 48°10' W 122°46'1717.1
2014-Oct-17 06:33N 48°11' W 123°11'1111.2
2014-Oct-17 05:33N 48°12' W 123°28'1413.8
2014-Oct-17 04:33N 48°13' W 123°49'1414.5
2014-Oct-17 03:33N 48°18' W 124°09'1716.6
2014-Oct-17 02:33N 48°25' W 124°32'1817.7
2014-Oct-17 01:33N 48°28' W 124°58'1716.8
2014-Oct-17 00:33N 48°33' W 125°23'1817.7
2014-Oct-16 23:34N 48°41' W 125°46'1717.1
2014-Oct-16 22:33N 48°49' W 126°09'1717.4
2014-Oct-16 21:33N 48°58' W 126°32'1717.3
2014-Oct-16 20:33N 49°05' W 126°56'  

Dump ship's entire track history